sensor_id;sensor_type;location;lat;lon;timestamp;P1;durP1;ratioP1;P2;durP2;ratioP2
15665;SDS011;20725;51.196;3.510;2024-01-30T00:01:25;10.13;;;9.20;;
15665;SDS011;20725;51.196;3.510;2024-01-30T00:03:52;9.33;;;8.20;;
15665;SDS011;20725;51.196;3.510;2024-01-30T00:06:19;8.70;;;7.90;;
15665;SDS011;20725;51.196;3.510;2024-01-30T00:08:47;12.70;;;8.47;;
15665;SDS011;20725;51.196;3.510;2024-01-30T00:11:16;9.40;;;8.47;;
15665;SDS011;20725;51.196;3.510;2024-01-30T00:13:43;9.60;;;8.60;;
15665;SDS011;20725;51.196;3.510;2024-01-30T00:16:19;10.07;;;7.97;;
15665;SDS011;20725;51.196;3.510;2024-01-30T00:18:47;10.13;;;9.13;;
15665;SDS011;20725;51.196;3.510;2024-01-30T00:21:14;9.83;;;8.83;;
15665;SDS011;20725;51.196;3.510;2024-01-30T00:23:42;10.07;;;9.10;;
15665;SDS011;20725;51.196;3.510;2024-01-30T00:26:09;10.10;;;8.50;;
15665;SDS011;20725;51.196;3.510;2024-01-30T00:28:38;9.57;;;7.77;;
15665;SDS011;20725;51.196;3.510;2024-01-30T00:31:05;11.97;;;8.53;;
15665;SDS011;20725;51.196;3.510;2024-01-30T00:33:32;9.47;;;8.47;;
15665;SDS011;20725;51.196;3.510;2024-01-30T00:36:00;9.07;;;8.17;;
15665;SDS011;20725;51.196;3.510;2024-01-30T00:38:27;8.63;;;7.50;;
15665;SDS011;20725;51.196;3.510;2024-01-30T00:40:54;10.13;;;8.13;;
15665;SDS011;20725;51.196;3.510;2024-01-30T00:43:21;7.43;;;6.73;;
15665;SDS011;20725;51.196;3.510;2024-01-30T00:45:51;9.67;;;8.37;;
15665;SDS011;20725;51.196;3.510;2024-01-30T00:48:19;11.00;;;8.93;;
15665;SDS011;20725;51.196;3.510;2024-01-30T00:50:46;9.40;;;8.53;;
15665;SDS011;20725;51.196;3.510;2024-01-30T00:53:13;10.30;;;9.37;;
15665;SDS011;20725;51.196;3.510;2024-01-30T00:55:41;13.80;;;9.43;;
15665;SDS011;20725;51.196;3.510;2024-01-30T00:58:08;11.93;;;8.10;;
15665;SDS011;20725;51.196;3.510;2024-01-30T01:00:35;9.37;;;8.27;;
15665;SDS011;20725;51.196;3.510;2024-01-30T01:03:04;10.47;;;9.47;;
15665;SDS011;20725;51.196;3.510;2024-01-30T01:05:31;9.63;;;7.93;;
15665;SDS011;20725;51.196;3.510;2024-01-30T01:07:58;9.23;;;8.33;;
15665;SDS011;20725;51.196;3.510;2024-01-30T01:10:26;11.10;;;8.17;;
15665;SDS011;20725;51.196;3.510;2024-01-30T01:12:53;11.17;;;9.47;;
15665;SDS011;20725;51.196;3.510;2024-01-30T01:15:21;9.40;;;8.40;;
15665;SDS011;20725;51.196;3.510;2024-01-30T01:17:48;10.47;;;9.00;;
15665;SDS011;20725;51.196;3.510;2024-01-30T01:20:16;10.10;;;8.90;;
15665;SDS011;20725;51.196;3.510;2024-01-30T01:22:44;10.13;;;9.17;;
15665;SDS011;20725;51.196;3.510;2024-01-30T01:25:11;11.17;;;8.67;;
15665;SDS011;20725;51.196;3.510;2024-01-30T01:27:38;10.80;;;8.90;;
15665;SDS011;20725;51.196;3.510;2024-01-30T01:30:08;7.70;;;7.00;;
15665;SDS011;20725;51.196;3.510;2024-01-30T01:32:36;9.90;;;8.73;;
15665;SDS011;20725;51.196;3.510;2024-01-30T01:35:09;9.47;;;8.57;;
15665;SDS011;20725;51.196;3.510;2024-01-30T01:37:38;12.60;;;9.07;;
15665;SDS011;20725;51.196;3.510;2024-01-30T01:40:06;14.73;;;9.40;;
15665;SDS011;20725;51.196;3.510;2024-01-30T01:42:33;10.50;;;9.37;;
15665;SDS011;20725;51.196;3.510;2024-01-30T01:45:01;9.60;;;7.60;;
15665;SDS011;20725;51.196;3.510;2024-01-30T01:47:28;12.53;;;8.83;;
15665;SDS011;20725;51.196;3.510;2024-01-30T01:49:55;10.83;;;8.03;;
15665;SDS011;20725;51.196;3.510;2024-01-30T01:52:23;13.07;;;8.97;;
15665;SDS011;20725;51.196;3.510;2024-01-30T01:54:52;11.37;;;8.90;;
15665;SDS011;20725;51.196;3.510;2024-01-30T01:57:19;12.00;;;8.67;;
15665;SDS011;20725;51.196;3.510;2024-01-30T01:59:46;10.37;;;8.93;;
15665;SDS011;20725;51.196;3.510;2024-01-30T02:02:14;10.07;;;9.10;;
15665;SDS011;20725;51.196;3.510;2024-01-30T02:04:43;11.07;;;9.73;;
15665;SDS011;20725;51.196;3.510;2024-01-30T02:07:11;9.03;;;7.70;;
15665;SDS011;20725;51.196;3.510;2024-01-30T02:09:38;10.77;;;9.67;;
15665;SDS011;20725;51.196;3.510;2024-01-30T02:12:07;10.67;;;9.60;;
15665;SDS011;20725;51.196;3.510;2024-01-30T02:14:43;10.67;;;9.23;;
15665;SDS011;20725;51.196;3.510;2024-01-30T02:17:11;11.60;;;9.63;;
15665;SDS011;20725;51.196;3.510;2024-01-30T02:19:38;11.50;;;9.83;;
15665;SDS011;20725;51.196;3.510;2024-01-30T02:22:08;8.63;;;7.77;;
15665;SDS011;20725;51.196;3.510;2024-01-30T02:24:36;12.03;;;9.33;;
15665;SDS011;20725;51.196;3.510;2024-01-30T02:27:03;10.80;;;9.37;;
15665;SDS011;20725;51.196;3.510;2024-01-30T02:29:31;10.17;;;9.23;;
15665;SDS011;20725;51.196;3.510;2024-01-30T02:31:58;12.27;;;9.60;;
15665;SDS011;20725;51.196;3.510;2024-01-30T02:34:26;10.57;;;9.03;;
15665;SDS011;20725;51.196;3.510;2024-01-30T02:36:53;13.77;;;10.20;;
15665;SDS011;20725;51.196;3.510;2024-01-30T02:39:22;12.03;;;9.77;;
15665;SDS011;20725;51.196;3.510;2024-01-30T02:41:49;10.63;;;9.23;;
15665;SDS011;20725;51.196;3.510;2024-01-30T02:44:16;10.80;;;9.67;;
15665;SDS011;20725;51.196;3.510;2024-01-30T02:46:43;15.60;;;8.73;;
15665;SDS011;20725;51.196;3.510;2024-01-30T02:49:11;9.63;;;7.57;;
15665;SDS011;20725;51.196;3.510;2024-01-30T02:51:38;10.77;;;9.63;;
15665;SDS011;20725;51.196;3.510;2024-01-30T02:54:05;7.67;;;6.90;;
15665;SDS011;20725;51.196;3.510;2024-01-30T02:56:34;11.90;;;7.90;;
15665;SDS011;20725;51.196;3.510;2024-01-30T02:59:01;11.70;;;8.87;;
15665;SDS011;20725;51.196;3.510;2024-01-30T03:01:29;8.97;;;7.77;;
15665;SDS011;20725;51.196;3.510;2024-01-30T03:03:57;10.03;;;8.90;;
15665;SDS011;20725;51.196;3.510;2024-01-30T03:06:24;9.73;;;7.77;;
15665;SDS011;20725;51.196;3.510;2024-01-30T03:08:51;9.63;;;8.47;;
15665;SDS011;20725;51.196;3.510;2024-01-30T03:11:18;8.80;;;7.93;;
15665;SDS011;20725;51.196;3.510;2024-01-30T03:13:46;9.83;;;8.83;;
15665;SDS011;20725;51.196;3.510;2024-01-30T03:16:13;8.83;;;8.03;;
15665;SDS011;20725;51.196;3.510;2024-01-30T03:18:41;11.17;;;10.07;;
15665;SDS011;20725;51.196;3.510;2024-01-30T03:21:08;10.93;;;9.40;;
15665;SDS011;20725;51.196;3.510;2024-01-30T03:23:35;9.97;;;8.47;;
15665;SDS011;20725;51.196;3.510;2024-01-30T03:26:02;10.27;;;8.33;;
15665;SDS011;20725;51.196;3.510;2024-01-30T03:28:31;10.40;;;9.50;;
15665;SDS011;20725;51.196;3.510;2024-01-30T03:31:00;14.37;;;9.73;;
15665;SDS011;20725;51.196;3.510;2024-01-30T03:33:28;11.03;;;9.93;;
15665;SDS011;20725;51.196;3.510;2024-01-30T03:35:55;10.80;;;9.70;;
15665;SDS011;20725;51.196;3.510;2024-01-30T03:38:22;12.53;;;9.67;;
15665;SDS011;20725;51.196;3.510;2024-01-30T03:40:49;10.17;;;9.17;;
15665;SDS011;20725;51.196;3.510;2024-01-30T03:43:17;12.17;;;8.00;;
15665;SDS011;20725;51.196;3.510;2024-01-30T03:45:44;9.83;;;8.83;;
15665;SDS011;20725;51.196;3.510;2024-01-30T03:48:13;11.50;;;9.93;;
15665;SDS011;20725;51.196;3.510;2024-01-30T03:50:40;11.63;;;10.23;;
15665;SDS011;20725;51.196;3.510;2024-01-30T03:53:07;11.97;;;9.37;;
15665;SDS011;20725;51.196;3.510;2024-01-30T03:55:34;11.87;;;10.67;;
15665;SDS011;20725;51.196;3.510;2024-01-30T03:58:02;12.07;;;10.77;;
15665;SDS011;20725;51.196;3.510;2024-01-30T04:00:29;10.83;;;9.67;;
15665;SDS011;20725;51.196;3.510;2024-01-30T04:02:57;10.67;;;8.87;;
15665;SDS011;20725;51.196;3.510;2024-01-30T04:05:25;13.10;;;9.17;;
15665;SDS011;20725;51.196;3.510;2024-01-30T04:07:53;13.43;;;9.07;;
15665;SDS011;20725;51.196;3.510;2024-01-30T04:10:20;11.67;;;10.57;;
15665;SDS011;20725;51.196;3.510;2024-01-30T04:12:48;12.93;;;10.47;;
15665;SDS011;20725;51.196;3.510;2024-01-30T04:15:15;11.17;;;9.37;;
15665;SDS011;20725;51.196;3.510;2024-01-30T04:17:42;12.67;;;10.63;;
15665;SDS011;20725;51.196;3.510;2024-01-30T04:20:13;13.20;;;9.47;;
15665;SDS011;20725;51.196;3.510;2024-01-30T04:22:42;12.97;;;9.10;;
15665;SDS011;20725;51.196;3.510;2024-01-30T04:25:09;10.47;;;9.37;;
15665;SDS011;20725;51.196;3.510;2024-01-30T04:27:36;11.07;;;8.73;;
15665;SDS011;20725;51.196;3.510;2024-01-30T04:30:04;10.47;;;9.33;;
15665;SDS011;20725;51.196;3.510;2024-01-30T04:32:32;11.63;;;10.53;;
15665;SDS011;20725;51.196;3.510;2024-01-30T04:34:59;12.63;;;10.47;;
15665;SDS011;20725;51.196;3.510;2024-01-30T04:37:26;8.97;;;8.07;;
15665;SDS011;20725;51.196;3.510;2024-01-30T04:39:55;11.23;;;8.83;;
15665;SDS011;20725;51.196;3.510;2024-01-30T04:42:22;12.00;;;8.90;;
15665;SDS011;20725;51.196;3.510;2024-01-30T04:44:49;11.13;;;9.67;;
15665;SDS011;20725;51.196;3.510;2024-01-30T04:47:17;10.43;;;9.40;;
15665;SDS011;20725;51.196;3.510;2024-01-30T04:49:44;12.53;;;10.60;;
15665;SDS011;20725;51.196;3.510;2024-01-30T04:52:11;13.67;;;9.87;;
15665;SDS011;20725;51.196;3.510;2024-01-30T04:54:38;18.60;;;10.90;;
15665;SDS011;20725;51.196;3.510;2024-01-30T04:57:07;11.13;;;9.80;;
15665;SDS011;20725;51.196;3.510;2024-01-30T04:59:37;16.00;;;10.83;;
15665;SDS011;20725;51.196;3.510;2024-01-30T05:02:04;11.43;;;9.97;;
15665;SDS011;20725;51.196;3.510;2024-01-30T05:04:32;13.37;;;9.93;;
15665;SDS011;20725;51.196;3.510;2024-01-30T05:06:59;14.17;;;10.00;;
15665;SDS011;20725;51.196;3.510;2024-01-30T05:09:26;12.77;;;10.10;;
15665;SDS011;20725;51.196;3.510;2024-01-30T05:11:53;12.00;;;10.10;;
15665;SDS011;20725;51.196;3.510;2024-01-30T05:14:22;10.47;;;9.47;;
15665;SDS011;20725;51.196;3.510;2024-01-30T05:16:49;15.83;;;8.90;;
15665;SDS011;20725;51.196;3.510;2024-01-30T05:19:16;9.83;;;7.87;;
15665;SDS011;20725;51.196;3.510;2024-01-30T05:21:44;11.77;;;9.30;;
15665;SDS011;20725;51.196;3.510;2024-01-30T05:24:11;9.83;;;8.67;;
15665;SDS011;20725;51.196;3.510;2024-01-30T05:26:38;12.03;;;9.47;;
15665;SDS011;20725;51.196;3.510;2024-01-30T05:29:06;12.60;;;10.67;;
15665;SDS011;20725;51.196;3.510;2024-01-30T05:31:34;10.43;;;9.40;;
15665;SDS011;20725;51.196;3.510;2024-01-30T05:34:02;10.37;;;9.33;;
15665;SDS011;20725;51.196;3.510;2024-01-30T05:36:31;12.53;;;9.67;;
15665;SDS011;20725;51.196;3.510;2024-01-30T05:38:59;8.50;;;6.27;;
15665;SDS011;20725;51.196;3.510;2024-01-30T05:41:26;9.63;;;8.63;;
15665;SDS011;20725;51.196;3.510;2024-01-30T05:43:54;8.87;;;7.97;;
15665;SDS011;20725;51.196;3.510;2024-01-30T05:46:21;7.93;;;7.10;;
15665;SDS011;20725;51.196;3.510;2024-01-30T05:48:50;14.83;;;8.77;;
15665;SDS011;20725;51.196;3.510;2024-01-30T05:51:18;8.43;;;7.27;;
15665;SDS011;20725;51.196;3.510;2024-01-30T05:53:45;11.70;;;8.27;;
15665;SDS011;20725;51.196;3.510;2024-01-30T05:56:12;13.47;;;8.60;;
15665;SDS011;20725;51.196;3.510;2024-01-30T05:58:40;11.30;;;9.17;;
15665;SDS011;20725;51.196;3.510;2024-01-30T06:01:08;8.30;;;7.37;;
15665;SDS011;20725;51.196;3.510;2024-01-30T06:03:36;9.83;;;8.83;;
15665;SDS011;20725;51.196;3.510;2024-01-30T06:06:08;12.13;;;9.33;;
15665;SDS011;20725;51.196;3.510;2024-01-30T06:08:35;10.07;;;9.13;;
15665;SDS011;20725;51.196;3.510;2024-01-30T06:11:03;12.70;;;9.33;;
15665;SDS011;20725;51.196;3.510;2024-01-30T06:13:30;9.63;;;8.63;;
15665;SDS011;20725;51.196;3.510;2024-01-30T06:15:58;8.80;;;7.77;;
15665;SDS011;20725;51.196;3.510;2024-01-30T06:18:25;10.43;;;7.83;;
15665;SDS011;20725;51.196;3.510;2024-01-30T06:20:54;9.40;;;8.40;;
15665;SDS011;20725;51.196;3.510;2024-01-30T06:23:23;9.17;;;7.37;;
15665;SDS011;20725;51.196;3.510;2024-01-30T06:25:51;11.10;;;8.40;;
15665;SDS011;20725;51.196;3.510;2024-01-30T06:28:18;7.10;;;6.40;;
15665;SDS011;20725;51.196;3.510;2024-01-30T06:30:46;16.80;;;8.03;;
15665;SDS011;20725;51.196;3.510;2024-01-30T06:33:13;8.50;;;7.67;;
15665;SDS011;20725;51.196;3.510;2024-01-30T06:35:41;12.20;;;9.67;;
15665;SDS011;20725;51.196;3.510;2024-01-30T06:38:08;7.00;;;6.27;;
15665;SDS011;20725;51.196;3.510;2024-01-30T06:40:37;8.93;;;8.03;;
15665;SDS011;20725;51.196;3.510;2024-01-30T06:43:04;8.27;;;7.47;;
15665;SDS011;20725;51.196;3.510;2024-01-30T06:45:32;14.37;;;9.37;;
15665;SDS011;20725;51.196;3.510;2024-01-30T06:48:00;9.63;;;8.33;;
15665;SDS011;20725;51.196;3.510;2024-01-30T06:50:28;9.63;;;8.47;;
15665;SDS011;20725;51.196;3.510;2024-01-30T06:52:55;11.17;;;8.23;;
15665;SDS011;20725;51.196;3.510;2024-01-30T06:55:23;11.03;;;6.77;;
15665;SDS011;20725;51.196;3.510;2024-01-30T06:57:52;10.00;;;8.90;;
15665;SDS011;20725;51.196;3.510;2024-01-30T07:00:20;10.33;;;9.27;;
15665;SDS011;20725;51.196;3.510;2024-01-30T07:02:48;8.70;;;7.70;;
15665;SDS011;20725;51.196;3.510;2024-01-30T07:05:15;16.10;;;9.60;;
15665;SDS011;20725;51.196;3.510;2024-01-30T07:07:43;11.83;;;8.97;;
15665;SDS011;20725;51.196;3.510;2024-01-30T07:10:10;8.53;;;7.73;;
15665;SDS011;20725;51.196;3.510;2024-01-30T07:12:38;7.63;;;5.37;;
15665;SDS011;20725;51.196;3.510;2024-01-30T07:15:06;9.20;;;8.30;;
15665;SDS011;20725;51.196;3.510;2024-01-30T07:17:34;14.17;;;9.50;;
15665;SDS011;20725;51.196;3.510;2024-01-30T07:20:01;13.40;;;9.80;;
15665;SDS011;20725;51.196;3.510;2024-01-30T07:22:29;12.27;;;8.50;;
15665;SDS011;20725;51.196;3.510;2024-01-30T07:24:57;12.23;;;9.57;;
15665;SDS011;20725;51.196;3.510;2024-01-30T07:27:24;13.60;;;9.37;;
15665;SDS011;20725;51.196;3.510;2024-01-30T07:29:51;12.27;;;9.13;;
15665;SDS011;20725;51.196;3.510;2024-01-30T07:32:20;13.13;;;10.03;;
15665;SDS011;20725;51.196;3.510;2024-01-30T07:34:48;16.30;;;9.07;;
15665;SDS011;20725;51.196;3.510;2024-01-30T07:37:16;13.57;;;9.50;;
15665;SDS011;20725;51.196;3.510;2024-01-30T07:39:43;10.53;;;9.43;;
15665;SDS011;20725;51.196;3.510;2024-01-30T07:42:10;11.43;;;8.17;;
15665;SDS011;20725;51.196;3.510;2024-01-30T07:44:37;11.90;;;9.87;;
15665;SDS011;20725;51.196;3.510;2024-01-30T07:47:04;12.00;;;9.73;;
15665;SDS011;20725;51.196;3.510;2024-01-30T07:49:34;11.60;;;8.80;;
15665;SDS011;20725;51.196;3.510;2024-01-30T07:52:01;12.50;;;8.90;;
15665;SDS011;20725;51.196;3.510;2024-01-30T07:54:30;13.20;;;8.30;;
15665;SDS011;20725;51.196;3.510;2024-01-30T07:56:59;17.00;;;9.13;;
15665;SDS011;20725;51.196;3.510;2024-01-30T07:59:27;11.43;;;9.70;;
15665;SDS011;20725;51.196;3.510;2024-01-30T08:01:54;11.27;;;9.90;;
15665;SDS011;20725;51.196;3.510;2024-01-30T08:04:21;12.63;;;8.90;;
15665;SDS011;20725;51.196;3.510;2024-01-30T08:06:50;9.70;;;7.13;;
15665;SDS011;20725;51.196;3.510;2024-01-30T08:09:17;14.40;;;9.03;;
15665;SDS011;20725;51.196;3.510;2024-01-30T08:11:44;14.00;;;9.67;;
15665;SDS011;20725;51.196;3.510;2024-01-30T08:14:11;10.07;;;6.40;;
15665;SDS011;20725;51.196;3.510;2024-01-30T08:16:39;12.50;;;7.80;;
15665;SDS011;20725;51.196;3.510;2024-01-30T08:19:07;15.33;;;7.40;;
15665;SDS011;20725;51.196;3.510;2024-01-30T08:21:34;13.90;;;6.27;;
15665;SDS011;20725;51.196;3.510;2024-01-30T08:24:03;10.07;;;7.13;;
15665;SDS011;20725;51.196;3.510;2024-01-30T08:26:31;8.33;;;5.67;;
15665;SDS011;20725;51.196;3.510;2024-01-30T08:28:59;8.53;;;7.07;;
15665;SDS011;20725;51.196;3.510;2024-01-30T08:31:26;12.60;;;6.90;;
15665;SDS011;20725;51.196;3.510;2024-01-30T08:33:53;9.80;;;6.50;;
15665;SDS011;20725;51.196;3.510;2024-01-30T08:36:20;12.37;;;7.77;;
15665;SDS011;20725;51.196;3.510;2024-01-30T08:38:48;11.73;;;6.63;;
15665;SDS011;20725;51.196;3.510;2024-01-30T08:41:16;9.57;;;7.23;;
15665;SDS011;20725;51.196;3.510;2024-01-30T08:43:43;11.80;;;7.67;;
15665;SDS011;20725;51.196;3.510;2024-01-30T08:46:11;13.83;;;7.70;;
15665;SDS011;20725;51.196;3.510;2024-01-30T08:48:38;13.60;;;7.57;;
15665;SDS011;20725;51.196;3.510;2024-01-30T08:51:06;11.97;;;8.07;;
15665;SDS011;20725;51.196;3.510;2024-01-30T08:53:33;18.17;;;8.27;;
15665;SDS011;20725;51.196;3.510;2024-01-30T08:56:01;13.40;;;7.27;;
15665;SDS011;20725;51.196;3.510;2024-01-30T08:58:30;12.10;;;7.70;;
15665;SDS011;20725;51.196;3.510;2024-01-30T09:00:58;15.33;;;7.60;;
15665;SDS011;20725;51.196;3.510;2024-01-30T09:03:25;9.20;;;6.50;;
15665;SDS011;20725;51.196;3.510;2024-01-30T09:05:53;9.10;;;5.87;;
15665;SDS011;20725;51.196;3.510;2024-01-30T09:08:20;7.87;;;4.37;;
15665;SDS011;20725;51.196;3.510;2024-01-30T09:10:47;10.87;;;4.30;;
15665;SDS011;20725;51.196;3.510;2024-01-30T09:13:15;8.57;;;4.07;;
15665;SDS011;20725;51.196;3.510;2024-01-30T09:15:43;7.93;;;3.23;;
15665;SDS011;20725;51.196;3.510;2024-01-30T09:18:11;6.97;;;2.93;;
15665;SDS011;20725;51.196;3.510;2024-01-30T09:20:38;6.63;;;2.80;;
15665;SDS011;20725;51.196;3.510;2024-01-30T09:23:05;4.67;;;2.73;;
15665;SDS011;20725;51.196;3.510;2024-01-30T09:25:32;7.27;;;3.03;;
15665;SDS011;20725;51.196;3.510;2024-01-30T09:28:00;5.93;;;2.50;;
15665;SDS011;20725;51.196;3.510;2024-01-30T09:30:27;7.97;;;2.63;;
15665;SDS011;20725;51.196;3.510;2024-01-30T09:32:56;5.73;;;2.20;;
15665;SDS011;20725;51.196;3.510;2024-01-30T09:35:23;5.57;;;1.63;;
15665;SDS011;20725;51.196;3.510;2024-01-30T09:37:50;5.33;;;2.27;;
15665;SDS011;20725;51.196;3.510;2024-01-30T09:40:18;4.37;;;2.37;;
15665;SDS011;20725;51.196;3.510;2024-01-30T09:42:46;3.83;;;1.70;;
15665;SDS011;20725;51.196;3.510;2024-01-30T09:45:15;4.63;;;1.87;;
15665;SDS011;20725;51.196;3.510;2024-01-30T09:47:45;3.63;;;1.87;;
15665;SDS011;20725;51.196;3.510;2024-01-30T09:50:14;11.37;;;1.57;;
15665;SDS011;20725;51.196;3.510;2024-01-30T09:52:41;3.07;;;1.30;;
15665;SDS011;20725;51.196;3.510;2024-01-30T09:55:09;4.10;;;1.50;;
15665;SDS011;20725;51.196;3.510;2024-01-30T09:57:37;2.20;;;1.20;;
15665;SDS011;20725;51.196;3.510;2024-01-30T10:00:04;4.50;;;1.30;;
15665;SDS011;20725;51.196;3.510;2024-01-30T10:02:34;2.90;;;1.50;;
15665;SDS011;20725;51.196;3.510;2024-01-30T10:05:01;4.83;;;1.30;;
15665;SDS011;20725;51.196;3.510;2024-01-30T10:07:30;4.07;;;1.53;;
15665;SDS011;20725;51.196;3.510;2024-01-30T10:09:57;1.60;;;1.10;;
15665;SDS011;20725;51.196;3.510;2024-01-30T10:12:25;2.57;;;1.10;;
15665;SDS011;20725;51.196;3.510;2024-01-30T10:14:53;2.33;;;1.40;;
15665;SDS011;20725;51.196;3.510;2024-01-30T10:17:20;3.30;;;1.50;;
15665;SDS011;20725;51.196;3.510;2024-01-30T10:19:47;3.57;;;1.47;;
15665;SDS011;20725;51.196;3.510;2024-01-30T10:22:14;1.83;;;1.40;;
15665;SDS011;20725;51.196;3.510;2024-01-30T10:24:43;3.10;;;1.40;;
15665;SDS011;20725;51.196;3.510;2024-01-30T10:27:11;2.80;;;1.50;;
15665;SDS011;20725;51.196;3.510;2024-01-30T10:29:38;3.27;;;1.20;;
15665;SDS011;20725;51.196;3.510;2024-01-30T10:32:06;2.27;;;1.23;;
15665;SDS011;20725;51.196;3.510;2024-01-30T10:34:34;4.27;;;1.30;;
15665;SDS011;20725;51.196;3.510;2024-01-30T10:37:06;3.37;;;1.33;;
15665;SDS011;20725;51.196;3.510;2024-01-30T10:39:38;5.10;;;1.53;;
15665;SDS011;20725;51.196;3.510;2024-01-30T10:42:07;3.20;;;1.43;;
15665;SDS011;20725;51.196;3.510;2024-01-30T10:44:36;2.93;;;1.40;;
15665;SDS011;20725;51.196;3.510;2024-01-30T10:47:06;2.73;;;1.30;;
15665;SDS011;20725;51.196;3.510;2024-01-30T10:49:34;1.70;;;1.27;;
15665;SDS011;20725;51.196;3.510;2024-01-30T10:52:01;5.30;;;1.97;;
15665;SDS011;20725;51.196;3.510;2024-01-30T10:54:30;3.07;;;1.40;;
15665;SDS011;20725;51.196;3.510;2024-01-30T10:56:58;4.07;;;1.37;;
15665;SDS011;20725;51.196;3.510;2024-01-30T10:59:30;2.30;;;1.37;;
15665;SDS011;20725;51.196;3.510;2024-01-30T11:01:58;3.13;;;1.57;;
15665;SDS011;20725;51.196;3.510;2024-01-30T11:04:25;2.27;;;1.27;;
15665;SDS011;20725;51.196;3.510;2024-01-30T11:06:53;3.03;;;1.80;;
15665;SDS011;20725;51.196;3.510;2024-01-30T11:09:20;6.03;;;1.30;;
15665;SDS011;20725;51.196;3.510;2024-01-30T11:11:48;4.63;;;1.40;;
15665;SDS011;20725;51.196;3.510;2024-01-30T11:14:16;4.40;;;1.77;;
15665;SDS011;20725;51.196;3.510;2024-01-30T11:16:44;4.77;;;1.70;;
15665;SDS011;20725;51.196;3.510;2024-01-30T11:19:13;2.27;;;1.70;;
15665;SDS011;20725;51.196;3.510;2024-01-30T11:21:44;1.70;;;1.20;;
15665;SDS011;20725;51.196;3.510;2024-01-30T11:24:15;3.30;;;1.53;;
15665;SDS011;20725;51.196;3.510;2024-01-30T11:26:43;2.73;;;1.70;;
15665;SDS011;20725;51.196;3.510;2024-01-30T11:29:13;3.70;;;1.63;;
15665;SDS011;20725;51.196;3.510;2024-01-30T11:31:40;1.30;;;1.20;;
15665;SDS011;20725;51.196;3.510;2024-01-30T11:34:19;2.10;;;1.40;;
15665;SDS011;20725;51.196;3.510;2024-01-30T11:36:48;3.83;;;1.67;;
15665;SDS011;20725;51.196;3.510;2024-01-30T11:39:21;2.00;;;1.30;;
15665;SDS011;20725;51.196;3.510;2024-01-30T11:41:53;1.53;;;1.37;;
15665;SDS011;20725;51.196;3.510;2024-01-30T11:44:24;4.00;;;1.37;;
15665;SDS011;20725;51.196;3.510;2024-01-30T11:46:55;7.73;;;1.70;;
15665;SDS011;20725;51.196;3.510;2024-01-30T11:49:28;4.33;;;1.50;;
15665;SDS011;20725;51.196;3.510;2024-01-30T11:51:59;2.60;;;1.40;;
15665;SDS011;20725;51.196;3.510;2024-01-30T11:54:29;3.97;;;1.60;;
15665;SDS011;20725;51.196;3.510;2024-01-30T11:56:56;8.23;;;1.90;;
15665;SDS011;20725;51.196;3.510;2024-01-30T11:59:24;7.00;;;2.43;;
15665;SDS011;20725;51.196;3.510;2024-01-30T12:01:51;4.27;;;1.80;;
15665;SDS011;20725;51.196;3.510;2024-01-30T12:04:18;5.60;;;1.97;;
15665;SDS011;20725;51.196;3.510;2024-01-30T12:06:47;4.40;;;1.70;;
15665;SDS011;20725;51.196;3.510;2024-01-30T12:09:17;5.40;;;1.80;;
15665;SDS011;20725;51.196;3.510;2024-01-30T12:11:44;6.60;;;2.20;;
15665;SDS011;20725;51.196;3.510;2024-01-30T12:14:12;4.07;;;1.60;;
15665;SDS011;20725;51.196;3.510;2024-01-30T12:16:39;7.37;;;2.03;;
15665;SDS011;20725;51.196;3.510;2024-01-30T12:19:07;4.13;;;1.60;;
15665;SDS011;20725;51.196;3.510;2024-01-30T12:21:35;5.70;;;1.70;;
15665;SDS011;20725;51.196;3.510;2024-01-30T12:24:04;2.73;;;1.70;;
15665;SDS011;20725;51.196;3.510;2024-01-30T12:26:32;3.67;;;1.40;;
15665;SDS011;20725;51.196;3.510;2024-01-30T12:29:00;3.57;;;1.77;;
15665;SDS011;20725;51.196;3.510;2024-01-30T12:31:32;4.43;;;1.80;;
15665;SDS011;20725;51.196;3.510;2024-01-30T12:34:00;3.90;;;1.70;;
15665;SDS011;20725;51.196;3.510;2024-01-30T12:36:29;6.30;;;1.83;;
15665;SDS011;20725;51.196;3.510;2024-01-30T12:38:57;4.20;;;1.97;;
15665;SDS011;20725;51.196;3.510;2024-01-30T12:44:28;4.07;;;1.90;;
15665;SDS011;20725;51.196;3.510;2024-01-30T12:46:56;3.80;;;1.77;;
15665;SDS011;20725;51.196;3.510;2024-01-30T12:49:23;6.20;;;2.00;;
15665;SDS011;20725;51.196;3.510;2024-01-30T12:51:50;4.47;;;2.23;;
15665;SDS011;20725;51.196;3.510;2024-01-30T12:54:17;6.57;;;2.17;;
15665;SDS011;20725;51.196;3.510;2024-01-30T12:56:45;4.97;;;2.33;;
15665;SDS011;20725;51.196;3.510;2024-01-30T12:59:12;4.17;;;2.93;;
15665;SDS011;20725;51.196;3.510;2024-01-30T13:01:40;4.03;;;2.70;;
15665;SDS011;20725;51.196;3.510;2024-01-30T13:04:08;8.17;;;3.00;;
15665;SDS011;20725;51.196;3.510;2024-01-30T13:06:35;4.17;;;2.50;;
15665;SDS011;20725;51.196;3.510;2024-01-30T13:09:02;5.60;;;2.63;;
15665;SDS011;20725;51.196;3.510;2024-01-30T13:11:30;6.47;;;2.63;;
15665;SDS011;20725;51.196;3.510;2024-01-30T13:13:58;5.33;;;2.10;;
15665;SDS011;20725;51.196;3.510;2024-01-30T13:16:25;8.60;;;2.87;;
15665;SDS011;20725;51.196;3.510;2024-01-30T13:18:54;4.97;;;2.77;;
15665;SDS011;20725;51.196;3.510;2024-01-30T13:21:21;8.17;;;3.03;;
15665;SDS011;20725;51.196;3.510;2024-01-30T13:23:48;9.57;;;3.80;;
15665;SDS011;20725;51.196;3.510;2024-01-30T13:26:19;11.97;;;4.30;;
15665;SDS011;20725;51.196;3.510;2024-01-30T13:28:46;5.77;;;3.20;;
15665;SDS011;20725;51.196;3.510;2024-01-30T13:31:13;5.57;;;3.10;;
15665;SDS011;20725;51.196;3.510;2024-01-30T13:33:41;6.60;;;3.60;;
15665;SDS011;20725;51.196;3.510;2024-01-30T13:36:10;9.93;;;4.20;;
15665;SDS011;20725;51.196;3.510;2024-01-30T13:38:37;10.80;;;4.97;;
15665;SDS011;20725;51.196;3.510;2024-01-30T13:41:05;6.73;;;4.30;;
15665;SDS011;20725;51.196;3.510;2024-01-30T13:43:32;13.37;;;4.60;;
15665;SDS011;20725;51.196;3.510;2024-01-30T13:46:00;6.63;;;4.03;;
15665;SDS011;20725;51.196;3.510;2024-01-30T13:48:28;5.57;;;4.80;;
15665;SDS011;20725;51.196;3.510;2024-01-30T13:50:55;6.87;;;3.80;;
15665;SDS011;20725;51.196;3.510;2024-01-30T13:53:24;5.90;;;3.40;;
15665;SDS011;20725;51.196;3.510;2024-01-30T13:55:51;7.83;;;3.33;;
15665;SDS011;20725;51.196;3.510;2024-01-30T13:58:18;8.77;;;3.00;;
15665;SDS011;20725;51.196;3.510;2024-01-30T14:00:46;5.47;;;3.23;;
15665;SDS011;20725;51.196;3.510;2024-01-30T14:03:14;3.80;;;2.67;;
15665;SDS011;20725;51.196;3.510;2024-01-30T14:05:41;5.27;;;2.73;;
15665;SDS011;20725;51.196;3.510;2024-01-30T14:08:09;5.87;;;3.17;;
15665;SDS011;20725;51.196;3.510;2024-01-30T14:10:37;3.63;;;2.23;;
15665;SDS011;20725;51.196;3.510;2024-01-30T14:13:05;2.80;;;2.40;;
15665;SDS011;20725;51.196;3.510;2024-01-30T14:15:32;3.33;;;2.40;;
15665;SDS011;20725;51.196;3.510;2024-01-30T14:17:59;4.63;;;2.97;;
15665;SDS011;20725;51.196;3.510;2024-01-30T14:20:27;5.57;;;2.93;;
15665;SDS011;20725;51.196;3.510;2024-01-30T14:22:54;6.03;;;2.40;;
15665;SDS011;20725;51.196;3.510;2024-01-30T14:25:21;3.67;;;2.40;;
15665;SDS011;20725;51.196;3.510;2024-01-30T14:27:50;5.13;;;2.53;;
15665;SDS011;20725;51.196;3.510;2024-01-30T14:30:17;7.10;;;3.00;;
15665;SDS011;20725;51.196;3.510;2024-01-30T14:32:44;3.83;;;2.60;;
15665;SDS011;20725;51.196;3.510;2024-01-30T14:35:12;6.53;;;3.47;;
15665;SDS011;20725;51.196;3.510;2024-01-30T14:37:40;3.07;;;2.77;;
15665;SDS011;20725;51.196;3.510;2024-01-30T14:40:07;7.33;;;3.07;;
15665;SDS011;20725;51.196;3.510;2024-01-30T14:42:35;4.80;;;2.47;;
15665;SDS011;20725;51.196;3.510;2024-01-30T14:45:04;2.57;;;2.27;;
15665;SDS011;20725;51.196;3.510;2024-01-30T14:47:31;4.37;;;2.30;;